sensor_id;sensor_type;location;lat;lon;timestamp;P1;durP1;ratioP1;P2;durP2;ratioP2
36597;SDS011;22607;49.550;11.940;2023-05-10T00:01:11;8.15;;;3.22;;
36597;SDS011;22607;49.550;11.940;2023-05-10T00:03:43;6.60;;;2.20;;
36597;SDS011;22607;49.550;11.940;2023-05-10T00:06:10;8.60;;;3.10;;
36597;SDS011;22607;49.550;11.940;2023-05-10T00:08:36;6.50;;;2.50;;
36597;SDS011;22607;49.550;11.940;2023-05-10T00:11:03;6.03;;;2.25;;
36597;SDS011;22607;49.550;11.940;2023-05-10T00:13:29;8.88;;;3.08;;
36597;SDS011;22607;49.550;11.940;2023-05-10T00:15:56;7.97;;;2.20;;
36597;SDS011;22607;49.550;11.940;2023-05-10T00:18:23;7.20;;;2.50;;
36597;SDS011;22607;49.550;11.940;2023-05-10T00:20:50;6.95;;;2.30;;
36597;SDS011;22607;49.550;11.940;2023-05-10T00:23:17;8.48;;;2.60;;
36597;SDS011;22607;49.550;11.940;2023-05-10T00:25:43;7.40;;;2.55;;
36597;SDS011;22607;49.550;11.940;2023-05-10T00:28:10;6.97;;;2.53;;
36597;SDS011;22607;49.550;11.940;2023-05-10T00:30:37;6.97;;;2.60;;
36597;SDS011;22607;49.550;11.940;2023-05-10T00:33:03;6.50;;;2.15;;
36597;SDS011;22607;49.550;11.940;2023-05-10T00:35:31;7.68;;;2.80;;
36597;SDS011;22607;49.550;11.940;2023-05-10T00:37:58;7.13;;;2.65;;
36597;SDS011;22607;49.550;11.940;2023-05-10T00:40:27;7.97;;;2.55;;
36597;SDS011;22607;49.550;11.940;2023-05-10T00:42:54;7.60;;;2.28;;
36597;SDS011;22607;49.550;11.940;2023-05-10T00:45:21;7.47;;;2.70;;
36597;SDS011;22607;49.550;11.940;2023-05-10T00:47:48;6.65;;;2.50;;
36597;SDS011;22607;49.550;11.940;2023-05-10T00:50:15;7.15;;;2.17;;
36597;SDS011;22607;49.550;11.940;2023-05-10T00:52:42;6.72;;;2.35;;
36597;SDS011;22607;49.550;11.940;2023-05-10T00:57:53;5.78;;;2.08;;
36597;SDS011;22607;49.550;11.940;2023-05-10T01:00:20;7.30;;;2.55;;
36597;SDS011;22607;49.550;11.940;2023-05-10T01:02:47;6.65;;;2.38;;
36597;SDS011;22607;49.550;11.940;2023-05-10T01:05:16;7.10;;;2.88;;
36597;SDS011;22607;49.550;11.940;2023-05-10T01:07:42;7.43;;;2.67;;
36597;SDS011;22607;49.550;11.940;2023-05-10T01:10:09;6.95;;;2.40;;
36597;SDS011;22607;49.550;11.940;2023-05-10T01:12:37;6.95;;;2.53;;
36597;SDS011;22607;49.550;11.940;2023-05-10T01:15:06;8.05;;;3.33;;
36597;SDS011;22607;49.550;11.940;2023-05-10T01:17:35;6.45;;;2.35;;
36597;SDS011;22607;49.550;11.940;2023-05-10T01:20:05;7.38;;;2.88;;
36597;SDS011;22607;49.550;11.940;2023-05-10T01:22:50;6.65;;;2.40;;
36597;SDS011;22607;49.550;11.940;2023-05-10T01:34:25;7.55;;;2.90;;
36597;SDS011;22607;49.550;11.940;2023-05-10T01:37:13;7.70;;;2.90;;
36597;SDS011;22607;49.550;11.940;2023-05-10T01:39:47;7.95;;;2.88;;
36597;SDS011;22607;49.550;11.940;2023-05-10T01:42:21;7.50;;;2.80;;
36597;SDS011;22607;49.550;11.940;2023-05-10T01:45:14;8.18;;;2.67;;
36597;SDS011;22607;49.550;11.940;2023-05-10T01:48:01;6.50;;;2.30;;
36597;SDS011;22607;49.550;11.940;2023-05-10T01:50:33;6.95;;;2.50;;
36597;SDS011;22607;49.550;11.940;2023-05-10T01:53:02;6.78;;;2.50;;
36597;SDS011;22607;49.550;11.940;2023-05-10T01:55:35;6.73;;;2.70;;
36597;SDS011;22607;49.550;11.940;2023-05-10T01:58:06;7.32;;;2.63;;
36597;SDS011;22607;49.550;11.940;2023-05-10T02:00:36;9.20;;;2.70;;
36597;SDS011;22607;49.550;11.940;2023-05-10T02:03:07;7.78;;;2.50;;
36597;SDS011;22607;49.550;11.940;2023-05-10T02:05:36;8.20;;;2.97;;
36597;SDS011;22607;49.550;11.940;2023-05-10T02:08:07;6.40;;;2.30;;
36597;SDS011;22607;49.550;11.940;2023-05-10T02:10:35;6.75;;;2.40;;
36597;SDS011;22607;49.550;11.940;2023-05-10T02:13:03;9.00;;;2.53;;
36597;SDS011;22607;49.550;11.940;2023-05-10T02:15:33;6.90;;;2.42;;
36597;SDS011;22607;49.550;11.940;2023-05-10T02:18:01;7.65;;;2.75;;
36597;SDS011;22607;49.550;11.940;2023-05-10T02:20:29;6.68;;;2.45;;
36597;SDS011;22607;49.550;11.940;2023-05-10T02:22:58;6.32;;;2.35;;
36597;SDS011;22607;49.550;11.940;2023-05-10T02:25:25;6.18;;;2.10;;
36597;SDS011;22607;49.550;11.940;2023-05-10T02:27:54;7.47;;;2.80;;
36597;SDS011;22607;49.550;11.940;2023-05-10T02:30:22;6.47;;;2.75;;
36597;SDS011;22607;49.550;11.940;2023-05-10T02:32:50;8.43;;;3.28;;
36597;SDS011;22607;49.550;11.940;2023-05-10T02:35:18;6.75;;;2.70;;
36597;SDS011;22607;49.550;11.940;2023-05-10T02:37:46;9.13;;;2.70;;
36597;SDS011;22607;49.550;11.940;2023-05-10T02:40:14;6.47;;;2.33;;
36597;SDS011;22607;49.550;11.940;2023-05-10T02:42:45;7.78;;;2.60;;
36597;SDS011;22607;49.550;11.940;2023-05-10T02:45:15;7.88;;;2.42;;
36597;SDS011;22607;49.550;11.940;2023-05-10T02:47:48;7.80;;;2.78;;
36597;SDS011;22607;49.550;11.940;2023-05-10T02:50:14;7.22;;;2.83;;
36597;SDS011;22607;49.550;11.940;2023-05-10T02:52:49;7.05;;;2.38;;
36597;SDS011;22607;49.550;11.940;2023-05-10T02:55:40;7.13;;;2.75;;
36597;SDS011;22607;49.550;11.940;2023-05-10T02:58:08;7.18;;;2.58;;
36597;SDS011;22607;49.550;11.940;2023-05-10T03:00:34;7.47;;;2.92;;
36597;SDS011;22607;49.550;11.940;2023-05-10T03:03:02;7.68;;;3.15;;
36597;SDS011;22607;49.550;11.940;2023-05-10T03:05:29;7.38;;;2.58;;
36597;SDS011;22607;49.550;11.940;2023-05-10T03:07:55;7.85;;;2.50;;
36597;SDS011;22607;49.550;11.940;2023-05-10T03:10:24;7.43;;;2.47;;
36597;SDS011;22607;49.550;11.940;2023-05-10T03:13:16;6.97;;;2.65;;
36597;SDS011;22607;49.550;11.940;2023-05-10T03:15:48;6.88;;;2.50;;
36597;SDS011;22607;49.550;11.940;2023-05-10T03:18:23;7.32;;;2.17;;
36597;SDS011;22607;49.550;11.940;2023-05-10T03:21:07;6.82;;;2.50;;
36597;SDS011;22607;49.550;11.940;2023-05-10T03:23:43;6.95;;;2.70;;
36597;SDS011;22607;49.550;11.940;2023-05-10T03:26:14;8.20;;;2.53;;
36597;SDS011;22607;49.550;11.940;2023-05-10T03:28:46;7.15;;;2.63;;
36597;SDS011;22607;49.550;11.940;2023-05-10T03:31:14;9.70;;;2.70;;
36597;SDS011;22607;49.550;11.940;2023-05-10T03:33:45;7.95;;;3.03;;
36597;SDS011;22607;49.550;11.940;2023-05-10T03:36:18;6.32;;;2.33;;
36597;SDS011;22607;49.550;11.940;2023-05-10T03:38:49;6.07;;;2.38;;
36597;SDS011;22607;49.550;11.940;2023-05-10T03:41:15;6.95;;;2.58;;
36597;SDS011;22607;49.550;11.940;2023-05-10T03:43:42;6.50;;;2.20;;
36597;SDS011;22607;49.550;11.940;2023-05-10T03:46:10;7.55;;;2.70;;
36597;SDS011;22607;49.550;11.940;2023-05-10T03:48:37;7.60;;;2.95;;
36597;SDS011;22607;49.550;11.940;2023-05-10T03:51:03;7.30;;;2.58;;
36597;SDS011;22607;49.550;11.940;2023-05-10T03:53:42;7.13;;;2.70;;
36597;SDS011;22607;49.550;11.940;2023-05-10T03:56:09;8.05;;;2.20;;
36597;SDS011;22607;49.550;11.940;2023-05-10T03:58:35;6.13;;;2.30;;
36597;SDS011;22607;49.550;11.940;2023-05-10T04:01:02;7.05;;;2.53;;
36597;SDS011;22607;49.550;11.940;2023-05-10T04:03:28;6.90;;;2.58;;
36597;SDS011;22607;49.550;11.940;2023-05-10T04:05:58;7.05;;;2.67;;
36597;SDS011;22607;49.550;11.940;2023-05-10T04:08:26;7.05;;;2.53;;
36597;SDS011;22607;49.550;11.940;2023-05-10T04:13:37;7.55;;;2.90;;
36597;SDS011;22607;49.550;11.940;2023-05-10T04:16:04;7.53;;;2.95;;
36597;SDS011;22607;49.550;11.940;2023-05-10T04:18:31;6.90;;;2.90;;
36597;SDS011;22607;49.550;11.940;2023-05-10T04:21:00;9.35;;;2.70;;
36597;SDS011;22607;49.550;11.940;2023-05-10T04:23:27;7.55;;;2.85;;
36597;SDS011;22607;49.550;11.940;2023-05-10T04:26:00;11.13;;;4.20;;
36597;SDS011;22607;49.550;11.940;2023-05-10T04:28:27;8.98;;;3.20;;
36597;SDS011;22607;49.550;11.940;2023-05-10T04:31:00;8.77;;;3.25;;
36597;SDS011;22607;49.550;11.940;2023-05-10T04:33:30;7.78;;;3.22;;
36597;SDS011;22607;49.550;11.940;2023-05-10T04:35:57;9.80;;;3.28;;
36597;SDS011;22607;49.550;11.940;2023-05-10T04:40:54;7.57;;;2.75;;
36597;SDS011;22607;49.550;11.940;2023-05-10T04:43:29;8.63;;;3.38;;
36597;SDS011;22607;49.550;11.940;2023-05-10T04:45:56;7.65;;;3.30;;
36597;SDS011;22607;49.550;11.940;2023-05-10T04:48:23;8.52;;;3.38;;
36597;SDS011;22607;49.550;11.940;2023-05-10T04:50:49;8.38;;;3.70;;
36597;SDS011;22607;49.550;11.940;2023-05-10T04:53:16;7.22;;;2.88;;
36597;SDS011;22607;49.550;11.940;2023-05-10T04:55:42;9.32;;;3.15;;
36597;SDS011;22607;49.550;11.940;2023-05-10T04:58:09;7.88;;;3.10;;
36597;SDS011;22607;49.550;11.940;2023-05-10T05:00:35;7.05;;;3.00;;
36597;SDS011;22607;49.550;11.940;2023-05-10T05:03:02;7.47;;;3.17;;
36597;SDS011;22607;49.550;11.940;2023-05-10T05:05:29;8.40;;;3.03;;
36597;SDS011;22607;49.550;11.940;2023-05-10T05:07:56;10.05;;;3.25;;
36597;SDS011;22607;49.550;11.940;2023-05-10T05:10:23;9.10;;;3.60;;
36597;SDS011;22607;49.550;11.940;2023-05-10T05:12:49;7.25;;;3.22;;
36597;SDS011;22607;49.550;11.940;2023-05-10T05:15:16;7.72;;;3.05;;
36597;SDS011;22607;49.550;11.940;2023-05-10T05:17:43;7.57;;;3.10;;
36597;SDS011;22607;49.550;11.940;2023-05-10T05:20:09;8.32;;;3.30;;
36597;SDS011;22607;49.550;11.940;2023-05-10T05:22:37;7.72;;;3.17;;
36597;SDS011;22607;49.550;11.940;2023-05-10T05:25:04;11.20;;;3.90;;
36597;SDS011;22607;49.550;11.940;2023-05-10T05:27:46;9.98;;;3.60;;
36597;SDS011;22607;49.550;11.940;2023-05-10T05:32:39;10.43;;;3.92;;
36597;SDS011;22607;49.550;11.940;2023-05-10T05:35:06;8.07;;;3.30;;
36597;SDS011;22607;49.550;11.940;2023-05-10T05:37:35;8.13;;;3.05;;
36597;SDS011;22607;49.550;11.940;2023-05-10T05:40:01;7.95;;;3.72;;
36597;SDS011;22607;49.550;11.940;2023-05-10T05:42:28;8.15;;;3.60;;
36597;SDS011;22607;49.550;11.940;2023-05-10T05:47:26;8.65;;;3.83;;
36597;SDS011;22607;49.550;11.940;2023-05-10T05:49:53;8.00;;;3.50;;
36597;SDS011;22607;49.550;11.940;2023-05-10T05:52:20;8.63;;;3.35;;
36597;SDS011;22607;49.550;11.940;2023-05-10T05:54:47;8.88;;;3.75;;
36597;SDS011;22607;49.550;11.940;2023-05-10T05:57:14;7.43;;;3.08;;
36597;SDS011;22607;49.550;11.940;2023-05-10T05:59:40;7.60;;;3.38;;
36597;SDS011;22607;49.550;11.940;2023-05-10T06:02:11;8.77;;;3.95;;
36597;SDS011;22607;49.550;11.940;2023-05-10T06:04:38;8.77;;;3.92;;
36597;SDS011;22607;49.550;11.940;2023-05-10T06:07:08;8.27;;;3.65;;
36597;SDS011;22607;49.550;11.940;2023-05-10T06:09:34;9.27;;;4.28;;
36597;SDS011;22607;49.550;11.940;2023-05-10T06:12:00;11.45;;;5.15;;
36597;SDS011;22607;49.550;11.940;2023-05-10T06:14:27;9.27;;;4.03;;
36597;SDS011;22607;49.550;11.940;2023-05-10T06:16:54;10.20;;;4.30;;
36597;SDS011;22607;49.550;11.940;2023-05-10T06:19:21;10.73;;;5.53;;
36597;SDS011;22607;49.550;11.940;2023-05-10T06:21:47;8.70;;;4.28;;
36597;SDS011;22607;49.550;11.940;2023-05-10T06:24:14;8.70;;;4.53;;
36597;SDS011;22607;49.550;11.940;2023-05-10T06:26:40;11.07;;;5.47;;
36597;SDS011;22607;49.550;11.940;2023-05-10T06:29:13;8.75;;;4.07;;
36597;SDS011;22607;49.550;11.940;2023-05-10T06:31:41;11.18;;;5.38;;
36597;SDS011;22607;49.550;11.940;2023-05-10T06:34:08;10.90;;;5.05;;
36597;SDS011;22607;49.550;11.940;2023-05-10T06:36:36;9.48;;;5.18;;
36597;SDS011;22607;49.550;11.940;2023-05-10T06:39:03;9.13;;;4.63;;
36597;SDS011;22607;49.550;11.940;2023-05-10T06:41:30;8.82;;;4.47;;
36597;SDS011;22607;49.550;11.940;2023-05-10T06:43:57;11.27;;;6.13;;
36597;SDS011;22607;49.550;11.940;2023-05-10T06:46:23;10.20;;;4.60;;
36597;SDS011;22607;49.550;11.940;2023-05-10T06:48:50;8.65;;;4.10;;
36597;SDS011;22607;49.550;11.940;2023-05-10T06:51:16;9.73;;;4.40;;
36597;SDS011;22607;49.550;11.940;2023-05-10T06:53:44;10.23;;;4.80;;
36597;SDS011;22607;49.550;11.940;2023-05-10T06:56:11;10.63;;;4.97;;
36597;SDS011;22607;49.550;11.940;2023-05-10T06:58:39;9.90;;;4.70;;
36597;SDS011;22607;49.550;11.940;2023-05-10T07:01:05;10.50;;;4.70;;
36597;SDS011;22607;49.550;11.940;2023-05-10T07:03:32;10.23;;;4.80;;
36597;SDS011;22607;49.550;11.940;2023-05-10T07:06:02;10.82;;;4.93;;
36597;SDS011;22607;49.550;11.940;2023-05-10T07:08:30;10.80;;;5.80;;
36597;SDS011;22607;49.550;11.940;2023-05-10T07:11:04;11.88;;;5.60;;
36597;SDS011;22607;49.550;11.940;2023-05-10T07:13:33;11.43;;;6.13;;
36597;SDS011;22607;49.550;11.940;2023-05-10T07:16:06;10.57;;;5.50;;
36597;SDS011;22607;49.550;11.940;2023-05-10T07:18:34;9.93;;;4.68;;
36597;SDS011;22607;49.550;11.940;2023-05-10T07:21:07;9.95;;;5.25;;
36597;SDS011;22607;49.550;11.940;2023-05-10T07:23:34;10.25;;;5.47;;
36597;SDS011;22607;49.550;11.940;2023-05-10T07:26:07;13.52;;;6.45;;
36597;SDS011;22607;49.550;11.940;2023-05-10T07:28:35;12.55;;;6.63;;
36597;SDS011;22607;49.550;11.940;2023-05-10T07:31:13;10.45;;;5.43;;
36597;SDS011;22607;49.550;11.940;2023-05-10T07:33:47;11.27;;;5.53;;
36597;SDS011;22607;49.550;11.940;2023-05-10T07:36:14;14.32;;;6.45;;
36597;SDS011;22607;49.550;11.940;2023-05-10T07:38:40;10.85;;;5.82;;
36597;SDS011;22607;49.550;11.940;2023-05-10T07:41:07;11.50;;;6.15;;
36597;SDS011;22607;49.550;11.940;2023-05-10T07:43:33;10.05;;;5.85;;
36597;SDS011;22607;49.550;11.940;2023-05-10T07:46:00;11.57;;;5.82;;
36597;SDS011;22607;49.550;11.940;2023-05-10T07:48:27;11.27;;;6.05;;
36597;SDS011;22607;49.550;11.940;2023-05-10T07:50:53;10.70;;;5.07;;
36597;SDS011;22607;49.550;11.940;2023-05-10T07:53:20;12.05;;;6.78;;
36597;SDS011;22607;49.550;11.940;2023-05-10T07:55:50;11.25;;;6.30;;
36597;SDS011;22607;49.550;11.940;2023-05-10T07:58:17;10.05;;;5.18;;
36597;SDS011;22607;49.550;11.940;2023-05-10T08:00:44;11.05;;;5.13;;
36597;SDS011;22607;49.550;11.940;2023-05-10T08:03:11;10.80;;;5.45;;
36597;SDS011;22607;49.550;11.940;2023-05-10T08:05:38;9.43;;;4.82;;
36597;SDS011;22607;49.550;11.940;2023-05-10T08:08:04;8.88;;;4.50;;
36597;SDS011;22607;49.550;11.940;2023-05-10T08:10:31;9.57;;;4.78;;
36597;SDS011;22607;49.550;11.940;2023-05-10T08:12:58;10.48;;;5.78;;
36597;SDS011;22607;49.550;11.940;2023-05-10T08:15:32;9.82;;;4.82;;
36597;SDS011;22607;49.550;11.940;2023-05-10T08:17:59;10.52;;;5.07;;
36597;SDS011;22607;49.550;11.940;2023-05-10T08:20:26;9.80;;;4.53;;
36597;SDS011;22607;49.550;11.940;2023-05-10T08:22:53;9.35;;;4.63;;
36597;SDS011;22607;49.550;11.940;2023-05-10T08:25:19;9.05;;;4.53;;
36597;SDS011;22607;49.550;11.940;2023-05-10T08:27:47;9.15;;;3.92;;
36597;SDS011;22607;49.550;11.940;2023-05-10T08:30:13;9.25;;;4.95;;
36597;SDS011;22607;49.550;11.940;2023-05-10T08:32:40;8.30;;;3.92;;
36597;SDS011;22607;49.550;11.940;2023-05-10T08:35:07;7.45;;;3.05;;
36597;SDS011;22607;49.550;11.940;2023-05-10T08:37:33;7.80;;;3.30;;
36597;SDS011;22607;49.550;11.940;2023-05-10T08:40:00;6.70;;;2.60;;
36597;SDS011;22607;49.550;11.940;2023-05-10T08:42:39;8.57;;;2.70;;
36597;SDS011;22607;49.550;11.940;2023-05-10T08:45:09;7.15;;;2.45;;
36597;SDS011;22607;49.550;11.940;2023-05-10T08:47:37;6.82;;;2.58;;
36597;SDS011;22607;49.550;11.940;2023-05-10T08:50:05;6.47;;;2.53;;
36597;SDS011;22607;49.550;11.940;2023-05-10T08:52:33;6.50;;;2.40;;
36597;SDS011;22607;49.550;11.940;2023-05-10T08:55:04;5.97;;;2.00;;
36597;SDS011;22607;49.550;11.940;2023-05-10T08:57:31;5.55;;;1.83;;
36597;SDS011;22607;49.550;11.940;2023-05-10T08:59:58;6.38;;;2.10;;
36597;SDS011;22607;49.550;11.940;2023-05-10T09:02:27;4.97;;;1.80;;
36597;SDS011;22607;49.550;11.940;2023-05-10T09:04:53;6.15;;;1.98;;
36597;SDS011;22607;49.550;11.940;2023-05-10T09:07:20;6.22;;;1.90;;
36597;SDS011;22607;49.550;11.940;2023-05-10T09:09:47;4.60;;;1.40;;
36597;SDS011;22607;49.550;11.940;2023-05-10T09:12:16;5.57;;;1.85;;
36597;SDS011;22607;49.550;11.940;2023-05-10T09:14:43;3.78;;;1.40;;
36597;SDS011;22607;49.550;11.940;2023-05-10T09:17:10;4.30;;;1.45;;
36597;SDS011;22607;49.550;11.940;2023-05-10T09:19:37;5.32;;;1.45;;
36597;SDS011;22607;49.550;11.940;2023-05-10T09:22:05;4.38;;;1.42;;
36597;SDS011;22607;49.550;11.940;2023-05-10T09:24:32;5.88;;;1.58;;
36597;SDS011;22607;49.550;11.940;2023-05-10T09:26:58;4.72;;;1.42;;
36597;SDS011;22607;49.550;11.940;2023-05-10T09:29:25;4.20;;;1.30;;
36597;SDS011;22607;49.550;11.940;2023-05-10T09:31:51;4.70;;;1.55;;
36597;SDS011;22607;49.550;11.940;2023-05-10T09:34:22;3.22;;;1.20;;
36597;SDS011;22607;49.550;11.940;2023-05-10T09:36:56;4.53;;;1.60;;
36597;SDS011;22607;49.550;11.940;2023-05-10T09:39:30;3.50;;;1.25;;
36597;SDS011;22607;49.550;11.940;2023-05-10T09:42:09;3.28;;;1.10;;
36597;SDS011;22607;49.550;11.940;2023-05-10T09:44:36;3.25;;;1.23;;
36597;SDS011;22607;49.550;11.940;2023-05-10T09:47:04;3.10;;;1.10;;
36597;SDS011;22607;49.550;11.940;2023-05-10T09:49:30;4.78;;;1.45;;
36597;SDS011;22607;49.550;11.940;2023-05-10T09:52:01;2.75;;;1.00;;
36597;SDS011;22607;49.550;11.940;2023-05-10T09:54:29;2.90;;;1.05;;
36597;SDS011;22607;49.550;11.940;2023-05-10T09:56:56;3.08;;;0.90;;
36597;SDS011;22607;49.550;11.940;2023-05-10T09:59:24;2.28;;;0.80;;
36597;SDS011;22607;49.550;11.940;2023-05-10T10:01:55;2.08;;;0.90;;
36597;SDS011;22607;49.550;11.940;2023-05-10T10:04:26;2.80;;;0.88;;
36597;SDS011;22607;49.550;11.940;2023-05-10T10:06:59;1.95;;;0.90;;
36597;SDS011;22607;49.550;11.940;2023-05-10T10:09:27;3.08;;;0.80;;
36597;SDS011;22607;49.550;11.940;2023-05-10T10:11:54;2.67;;;1.00;;
36597;SDS011;22607;49.550;11.940;2023-05-10T10:14:22;1.35;;;0.63;;
36597;SDS011;22607;49.550;11.940;2023-05-10T10:16:50;1.92;;;0.70;;
36597;SDS011;22607;49.550;11.940;2023-05-10T10:19:33;2.60;;;0.80;;
36597;SDS011;22607;49.550;11.940;2023-05-10T10:22:02;2.80;;;0.85;;
36597;SDS011;22607;49.550;11.940;2023-05-10T10:24:29;2.65;;;0.80;;
36597;SDS011;22607;49.550;11.940;2023-05-10T10:26:56;2.72;;;0.90;;
36597;SDS011;22607;49.550;11.940;2023-05-10T10:35:08;2.58;;;0.80;;
36597;SDS011;22607;49.550;11.940;2023-05-10T10:37:45;3.85;;;1.00;;
36597;SDS011;22607;49.550;11.940;2023-05-10T10:40:29;2.42;;;0.80;;
36597;SDS011;22607;49.550;11.940;2023-05-10T10:46:09;1.83;;;0.70;;
36597;SDS011;22607;49.550;11.940;2023-05-10T10:48:41;1.52;;;0.60;;
36597;SDS011;22607;49.550;11.940;2023-05-10T10:51:13;1.63;;;0.68;;
36597;SDS011;22607;49.550;11.940;2023-05-10T10:53:40;2.28;;;0.70;;
36597;SDS011;22607;49.550;11.940;2023-05-10T10:56:08;2.28;;;0.80;;
36597;SDS011;22607;49.550;11.940;2023-05-10T10:58:37;0.80;;;0.55;;
36597;SDS011;22607;49.550;11.940;2023-05-10T11:01:09;2.33;;;0.68;;
36597;SDS011;22607;49.550;11.940;2023-05-10T11:03:37;2.05;;;0.75;;
36597;SDS011;22607;49.550;11.940;2023-05-10T11:06:10;1.77;;;0.80;;
36597;SDS011;22607;49.550;11.940;2023-05-10T11:08:43;1.23;;;0.70;;
36597;SDS011;22607;49.550;11.940;2023-05-10T11:11:12;1.60;;;0.77;;
36597;SDS011;22607;49.550;11.940;2023-05-10T11:13:44;3.07;;;0.80;;
36597;SDS011;22607;49.550;11.940;2023-05-10T11:19:03;1.33;;;0.60;;
36597;SDS011;22607;49.550;11.940;2023-05-10T11:21:33;1.85;;;0.70;;
36597;SDS011;22607;49.550;11.940;2023-05-10T11:24:13;1.60;;;0.70;;
36597;SDS011;22607;49.550;11.940;2023-05-10T11:26:42;2.00;;;0.80;;
36597;SDS011;22607;49.550;11.940;2023-05-10T11:29:09;0.82;;;0.60;;
36597;SDS011;22607;49.550;11.940;2023-05-10T11:31:41;1.55;;;0.50;;
36597;SDS011;22607;49.550;11.940;2023-05-10T11:34:10;1.92;;;0.57;;
36597;SDS011;22607;49.550;11.940;2023-05-10T11:36:37;2.50;;;0.60;;
36597;SDS011;22607;49.550;11.940;2023-05-10T11:39:04;2.22;;;0.75;;
36597;SDS011;22607;49.550;11.940;2023-05-10T11:41:31;2.17;;;0.80;;
36597;SDS011;22607;49.550;11.940;2023-05-10T11:43:57;2.53;;;0.60;;
36597;SDS011;22607;49.550;11.940;2023-05-10T11:46:25;1.98;;;0.63;;
36597;SDS011;22607;49.550;11.940;2023-05-10T11:48:57;1.35;;;0.60;;
36597;SDS011;22607;49.550;11.940;2023-05-10T11:51:27;0.80;;;0.50;;
36597;SDS011;22607;49.550;11.940;2023-05-10T11:53:55;2.75;;;0.50;;
36597;SDS011;22607;49.550;11.940;2023-05-10T11:56:24;0.85;;;0.50;;
36597;SDS011;22607;49.550;11.940;2023-05-10T11:58:56;2.08;;;0.68;;
36597;SDS011;22607;49.550;11.940;2023-05-10T12:01:30;1.58;;;0.80;;
36597;SDS011;22607;49.550;11.940;2023-05-10T12:03:57;2.10;;;0.60;;
36597;SDS011;22607;49.550;11.940;2023-05-10T12:06:27;0.85;;;0.40;;
36597;SDS011;22607;49.550;11.940;2023-05-10T12:08:55;1.20;;;0.47;;
36597;SDS011;22607;49.550;11.940;2023-05-10T12:11:24;0.22;;;0.22;;
36597;SDS011;22607;49.550;11.940;2023-05-10T12:13:54;0.50;;;0.40;;
36597;SDS011;22607;49.550;11.940;2023-05-10T12:16:23;0.82;;;0.30;;
36597;SDS011;22607;49.550;11.940;2023-05-10T12:18:52;0.50;;;0.35;;
36597;SDS011;22607;49.550;11.940;2023-05-10T12:21:26;0.82;;;0.47;;
36597;SDS011;22607;49.550;11.940;2023-05-10T12:23:58;1.60;;;0.50;;
36597;SDS011;22607;49.550;11.940;2023-05-10T12:26:28;1.88;;;0.50;;
36597;SDS011;22607;49.550;11.940;2023-05-10T12:29:11;0.70;;;0.50;;
36597;SDS011;22607;49.550;11.940;2023-05-10T12:31:55;1.65;;;0.30;;
36597;SDS011;22607;49.550;11.940;2023-05-10T12:34:24;0.73;;;0.40;;
36597;SDS011;22607;49.550;11.940;2023-05-10T12:36:53;1.13;;;0.68;;
36597;SDS011;22607;49.550;11.940;2023-05-10T12:39:22;0.85;;;0.50;;
36597;SDS011;22607;49.550;11.940;2023-05-10T12:41:49;0.80;;;0.50;;
36597;SDS011;22607;49.550;11.940;2023-05-10T12:44:24;2.30;;;0.57;;
36597;SDS011;22607;49.550;11.940;2023-05-10T12:46:51;0.70;;;0.50;;
36597;SDS011;22607;49.550;11.940;2023-05-10T12:49:17;1.02;;;0.50;;
36597;SDS011;22607;49.550;11.940;2023-05-10T12:51:46;2.30;;;0.90;;
36597;SDS011;22607;49.550;11.940;2023-05-10T12:54:12;2.55;;;0.80;;
36597;SDS011;22607;49.550;11.940;2023-05-10T12:56:39;4.95;;;0.88;;
36597;SDS011;22607;49.550;11.940;2023-05-10T12:59:07;3.40;;;1.08;;
36597;SDS011;22607;49.550;11.940;2023-05-10T13:01:33;5.57;;;1.20;;
36597;SDS011;22607;49.550;11.940;2023-05-10T13:04:00;2.10;;;0.68;;
36597;SDS011;22607;49.550;11.940;2023-05-10T13:06:27;3.45;;;1.00;;
36597;SDS011;22607;49.550;11.940;2023-05-10T13:08:54;2.25;;;0.90;;
36597;SDS011;22607;49.550;11.940;2023-05-10T13:11:20;2.47;;;0.70;;
36597;SDS011;22607;49.550;11.940;2023-05-10T13:13:47;3.63;;;0.93;;
36597;SDS011;22607;49.550;11.940;2023-05-10T13:16:14;5.13;;;1.17;;
36597;SDS011;22607;49.550;11.940;2023-05-10T13:18:40;5.93;;;1.50;;
36597;SDS011;22607;49.550;11.940;2023-05-10T13:21:07;3.70;;;0.90;;
36597;SDS011;22607;49.550;11.940;2023-05-10T13:23:34;5.43;;;1.00;;
36597;SDS011;22607;49.550;11.940;2023-05-10T13:26:00;3.15;;;0.93;;
36597;SDS011;22607;49.550;11.940;2023-05-10T13:28:27;3.00;;;0.82;;
36597;SDS011;22607;49.550;11.940;2023-05-10T13:31:04;4.10;;;0.95;;
36597;SDS011;22607;49.550;11.940;2023-05-10T13:33:31;2.22;;;0.80;;
36597;SDS011;22607;49.550;11.940;2023-05-10T13:35:57;3.30;;;0.80;;
36597;SDS011;22607;49.550;11.940;2023-05-10T13:38:24;1.88;;;0.80;;
36597;SDS011;22607;49.550;11.940;2023-05-10T13:40:50;1.58;;;0.80;;
36597;SDS011;22607;49.550;11.940;2023-05-10T13:43:20;2.38;;;0.90;;
36597;SDS011;22607;49.550;11.940;2023-05-10T13:45:46;3.35;;;1.10;;
36597;SDS011;22607;49.550;11.940;2023-05-10T13:48:13;5.20;;;1.25;;
36597;SDS011;22607;49.550;11.940;2023-05-10T13:50:39;3.63;;;1.25;;
36597;SDS011;22607;49.550;11.940;2023-05-10T13:53:06;3.20;;;1.00;;
36597;SDS011;22607;49.550;11.940;2023-05-10T13:55:38;3.58;;;1.20;;
36597;SDS011;22607;49.550;11.940;2023-05-10T13:58:05;4.72;;;1.20;;
36597;SDS011;22607;49.550;11.940;2023-05-10T14:00:36;3.22;;;1.23;;
36597;SDS011;22607;49.550;11.940;2023-05-10T14:03:02;2.85;;;1.20;;
36597;SDS011;22607;49.550;11.940;2023-05-10T14:05:31;4.35;;;1.10;;
36597;SDS011;22607;49.550;11.940;2023-05-10T14:07:57;3.83;;;1.20;;
36597;SDS011;22607;49.550;11.940;2023-05-10T14:10:24;4.55;;;1.45;;
36597;SDS011;22607;49.550;11.940;2023-05-10T14:12:51;4.85;;;1.30;;
36597;SDS011;22607;49.550;11.940;2023-05-10T14:15:17;4.45;;;1.10;;
36597;SDS011;22607;49.550;11.940;2023-05-10T14:17:49;4.75;;;1.40;;
36597;SDS011;22607;49.550;11.940;2023-05-10T14:20:16;3.90;;;1.45;;
36597;SDS011;22607;49.550;11.940;2023-05-10T14:22:42;4.30;;;1.50;;
36597;SDS011;22607;49.550;11.940;2023-05-10T14:25:09;5.05;;;1.40;;
36597;SDS011;22607;49.550;11.940;2023-05-10T14:27:35;4.57;;;1.40;;
36597;SDS011;22607;49.550;11.940;2023-05-10T14:30:04;5.53;;;1.83;;
36597;SDS011;22607;49.550;11.940;2023-05-10T14:32:37;3.38;;;1.27;;
36597;SDS011;22607;49.550;11.940;2023-05-10T14:35:03;5.68;;;1.88;;
36597;SDS011;22607;49.550;11.940;2023-05-10T14:37:32;5.05;;;1.50;;
36597;SDS011;22607;49.550;11.940;2023-05-10T14:39:58;4.50;;;1.75;;
36597;SDS011;22607;49.550;11.940;2023-05-10T14:42:25;6.57;;;2.00;;
36597;SDS011;22607;49.550;11.940;2023-05-10T14:44:51;5.38;;;1.85;;
36597;SDS011;22607;49.550;11.940;2023-05-10T14:47:18;8.65;;;2.88;;
36597;SDS011;22607;49.550;11.940;2023-05-10T14:49:44;6.30;;;2.15;;
36597;SDS011;22607;49.550;11.940;2023-05-10T14:52:11;5.32;;;1.48;;
36597;SDS011;22607;49.550;11.940;2023-05-10T14:54:38;4.38;;;1.23;;
36597;SDS011;22607;49.550;11.940;2023-05-10T14:57:05;5.63;;;1.42;;
36597;SDS011;22607;49.550;11.940;2023-05-10T14:59:32;6.63;;;2.35;;
36597;SDS011;22607;49.550;11.940;2023-05-10T15:01:59;5.88;;;2.05;;
36597;SDS011;22607;49.550;11.940;2023-05-10T15:04:26;6.85;;;2.05;;
36597;SDS011;22607;49.550;11.940;2023-05-10T15:06:54;4.10;;;1.30;;
36597;SDS011;22607;49.550;11.940;2023-05-10T15:09:25;4.18;;;1.42;;
36597;SDS011;22607;49.550;11.940;2023-05-10T15:11:53;5.45;;;1.80;;
36597;SDS011;22607;49.550;11.940;2023-05-10T15:14:21;3.33;;;1.20;;
36597;SDS011;22607;49.550;11.940;2023-05-10T15:16:48;4.50;;;1.27;;